createdAt,value
2023-03-17T00:00:31.498Z,41.9
2023-03-17T00:20:31.675Z,41.89
2023-03-17T00:40:31.670Z,41.89
2023-03-17T01:00:31.445Z,41.88
2023-03-17T01:20:31.498Z,41.87
2023-03-17T01:40:31.654Z,41.87
2023-03-17T02:00:31.474Z,41.86
2023-03-17T02:20:31.344Z,41.84
2023-03-17T02:40:31.400Z,41.85
2023-03-17T03:20:31.211Z,41.83
2023-03-17T03:40:31.464Z,41.81
2023-03-17T04:00:31.189Z,41.8
2023-03-17T04:20:31.228Z,41.78
2023-03-17T04:40:31.238Z,41.77
2023-03-17T05:00:31.275Z,41.76
2023-03-17T05:20:30.449Z,41.76
2023-03-17T05:40:31.127Z,41.74
2023-03-17T06:00:31.146Z,41.73
2023-03-17T06:20:30.904Z,41.73
2023-03-17T06:40:30.891Z,41.72
2023-03-17T07:00:30.913Z,41.72
2023-03-17T07:20:30.906Z,41.71
2023-03-17T07:40:32.189Z,41.7
2023-03-17T08:00:31.167Z,41.69
2023-03-17T08:20:31.109Z,41.69
2023-03-17T08:40:31.179Z,41.68
2023-03-17T09:00:30.933Z,41.67
2023-03-17T09:20:30.961Z,41.66
2023-03-17T09:40:31.129Z,41.66
2023-03-17T10:00:30.637Z,41.64
2023-03-17T10:20:30.612Z,41.62
2023-03-17T10:40:30.536Z,41.61
2023-03-17T11:00:30.518Z,41.57
2023-03-17T11:20:30.675Z,41.58
2023-03-17T11:40:30.386Z,41.57
2023-03-17T12:00:30.716Z,41.57
2023-03-17T12:20:30.672Z,41.56
2023-03-17T13:00:30.339Z,41.52
2023-03-17T13:20:30.311Z,41.5
2023-03-17T13:40:30.559Z,41.47
2023-03-17T14:00:30.302Z,41.45
2023-03-17T14:20:30.219Z,41.43
2023-03-17T15:00:29.904Z,41.4
2023-03-17T15:20:30.444Z,41.38
2023-03-17T15:40:30.424Z,41.37
2023-03-17T16:00:30.623Z,41.36
2023-03-17T16:20:30.222Z,41.34
2023-03-17T16:40:30.254Z,41.33
2023-03-17T17:00:30.330Z,41.32
2023-03-17T17:20:29.816Z,41.32
2023-03-17T17:40:30.603Z,41.31
2023-03-17T18:00:30.228Z,41.3
2023-03-17T18:20:30.149Z,41.3
2023-03-17T18:40:29.874Z,41.29
2023-03-17T19:00:30.207Z,41.28
2023-03-17T19:20:29.952Z,41.28
2023-03-17T19:40:30.118Z,41.26
2023-03-17T20:00:29.964Z,41.25
2023-03-17T20:20:29.807Z,41.24
2023-03-17T20:40:29.859Z,41.22
2023-03-17T21:00:29.837Z,41.2
2023-03-17T21:20:30.048Z,41.19
2023-03-17T21:40:29.968Z,41.18
2023-03-17T22:00:39.333Z,41.17
2023-03-17T22:40:30.125Z,41.17
2023-03-17T23:20:30.062Z,41.15
2023-03-17T23:40:29.505Z,41.13
